Time;durP1;ratioP1;P1;durP2;ratioP2;P2;SDS_P1;SDS_P2;PMS_P1;PMS_P2;Temp;Humidity;BMP_temperature;BMP_pressure;BME280_temperature;BME280_humidity;BME280_pressure;Samples;Min_cycle;Max_cycle;Signal;HPM_P1;HPM_P2
2024/04/18 00:02:10;;;;;;;5.07;1.10;;;3.70;99.90;;;;;;5547176;25;20078;-87
2024/04/18 00:04:37;;;;;;;3.50;1.05;;;3.90;99.90;;;;;;5495151;26;20006;-87
2024/04/18 00:07:03;;;;;;;4.30;1.00;;;3.80;99.90;;;;;;5499293;26;20409;-88
2024/04/18 00:09:30;;;;;;;3.10;0.98;;;3.70;99.90;;;;;;5515464;26;20021;-87
2024/04/18 00:11:57;;;;;;;4.07;1.05;;;4.40;99.90;;;;;;5525074;26;20022;-87
2024/04/18 00:14:24;;;;;;;5.38;1.13;;;4.50;99.90;;;;;;5488923;26;20007;-88
2024/04/18 00:16:50;;;;;;;3.63;1.08;;;3.60;99.90;;;;;;5480663;26;20086;-88
2024/04/18 00:19:17;;;;;;;4.93;1.00;;;4.40;99.90;;;;;;5495342;26;20021;-88
2024/04/18 00:21:44;;;;;;;7.13;1.30;;;3.60;99.90;;;;;;5544986;26;20034;-88
2024/04/18 00:24:11;;;;;;;5.80;1.10;;;3.40;99.90;;;;;;5496568;26;20006;-88
2024/04/18 00:26:38;;;;;;;3.13;0.90;;;3.60;99.90;;;;;;5508419;26;20006;-88
2024/04/18 00:29:04;;;;;;;2.83;0.88;;;3.50;99.90;;;;;;5496567;26;20006;-87
2024/04/18 00:31:31;;;;;;;5.35;1.35;;;3.50;99.90;;;;;;5527515;26;20014;-88
2024/04/18 00:33:58;;;;;;;5.32;1.35;;;3.60;99.90;;;;;;5496406;26;20017;-88
2024/04/18 00:36:25;;;;;;;3.72;1.02;;;3.50;99.90;;;;;;5540562;26;20010;-88
2024/04/18 00:38:52;;;;;;;4.00;1.08;;;3.50;99.90;;;;;;5479842;26;20051;-88
2024/04/18 00:41:19;;;;;;;6.30;0.90;;;4.20;99.90;;;;;;5489193;26;20042;-88
2024/04/18 00:43:45;;;;;;;3.58;1.00;;;4.20;99.90;;;;;;5493568;26;20522;-87
2024/04/18 00:46:12;;;;;;;3.33;1.02;;;3.70;99.90;;;;;;5516855;26;20007;-88
2024/04/18 00:48:40;;;;;;;4.18;1.10;;;4.40;99.90;;;;;;5534355;26;20470;-88
2024/04/18 00:51:07;;;;;;;3.60;1.00;;;4.60;99.90;;;;;;5500519;26;20005;-88
2024/04/18 00:53:34;;;;;;;2.90;1.13;;;4.30;99.90;;;;;;5506162;26;20463;-87
2024/04/18 00:56:01;;;;;;;4.28;1.00;;;4.20;99.90;;;;;;5502156;26;20014;-87
2024/04/18 00:58:29;;;;;;;3.55;1.00;;;4.10;99.90;;;;;;5561065;26;20005;-87
2024/04/18 01:00:56;;;;;;;5.57;0.95;;;3.40;99.90;;;;;;5524890;26;20021;-88
2024/04/18 01:03:23;;;;;;;3.20;1.08;;;4.10;99.90;;;;;;5547747;26;20006;-87
2024/04/18 01:05:50;;;;;;;3.95;0.90;;;3.40;99.90;;;;;;5513691;26;20006;-88
2024/04/18 01:08:16;;;;;;;3.03;1.42;;;4.10;99.90;;;;;;5526972;26;20006;-88
2024/04/18 01:10:43;;;;;;;5.13;1.10;;;3.60;99.90;;;;;;5550666;26;20470;-88
2024/04/18 01:13:10;;;;;;;4.15;1.30;;;4.20;99.90;;;;;;5506067;26;20018;-88
2024/04/18 01:15:37;;;;;;;4.30;1.10;;;4.00;99.90;;;;;;5502201;26;20013;-87
2024/04/18 01:18:04;;;;;;;7.97;0.95;;;3.30;99.90;;;;;;5494380;26;20046;-88
2024/04/18 01:20:31;;;;;;;3.42;1.20;;;3.20;99.90;;;;;;5509034;26;20006;-88
2024/04/18 01:22:57;;;;;;;3.15;1.33;;;3.20;99.90;;;;;;5494565;26;20042;-88
2024/04/18 01:25:25;;;;;;;3.30;0.95;;;3.20;99.90;;;;;;5488693;26;20005;-88
2024/04/18 01:27:52;;;;;;;3.80;0.93;;;3.10;99.90;;;;;;5483497;26;20059;-88
2024/04/18 01:30:39;;;;;;;6.95;0.93;;;3.10;99.90;;;;;;5505917;26;20001;-88
2024/04/18 01:33:06;;;;;;;4.10;1.00;;;4.10;99.90;;;;;;5548812;26;20022;-88
2024/04/18 01:35:33;;;;;;;2.83;1.00;;;2.90;99.90;;;;;;5521790;26;20466;-87
2024/04/18 01:38:00;;;;;;;9.68;1.27;;;2.90;99.90;;;;;;5513835;26;20005;-88
2024/04/18 01:40:27;;;;;;;4.30;1.17;;;2.80;99.90;;;;;;5502996;26;20005;-88
2024/04/18 01:42:54;;;;;;;4.43;1.00;;;2.70;99.90;;;;;;5544118;26;20006;-88
2024/04/18 01:45:21;;;;;;;4.68;1.08;;;2.70;99.90;;;;;;5517919;26;20006;-88
2024/04/18 01:47:48;;;;;;;5.90;1.10;;;3.10;99.90;;;;;;5497921;26;20018;-88
2024/04/18 01:50:15;;;;;;;4.00;1.27;;;2.80;99.90;;;;;;5509319;26;20426;-88
2024/04/18 01:52:42;;;;;;;3.35;1.00;;;2.80;99.90;;;;;;5503536;26;20006;-88
2024/04/18 01:55:09;;;;;;;3.70;1.38;;;2.70;99.90;;;;;;5538720;26;20903;-88
2024/04/18 01:57:36;;;;;;;9.00;1.35;;;2.70;99.90;;;;;;5496990;26;20006;-88
2024/04/18 02:00:04;;;;;;;4.20;1.25;;;3.40;99.90;;;;;;5528878;26;20025;-88
2024/04/18 02:02:30;;;;;;;4.68;1.20;;;2.70;99.90;;;;;;5527944;26;20006;-88
2024/04/18 02:04:57;;;;;;;5.22;1.10;;;2.60;99.90;;;;;;5497408;26;20083;-88
2024/04/18 02:07:24;;;;;;;5.78;1.50;;;3.20;99.90;;;;;;5527325;26;20120;-88
2024/04/18 02:09:51;;;;;;;5.28;1.20;;;2.60;99.90;;;;;;5529517;26;20017;-88
2024/04/18 02:12:20;;;;;;;4.78;1.40;;;2.90;99.90;;;;;;5507445;26;20077;-88
2024/04/18 02:14:48;;;;;;;5.03;1.30;;;2.50;99.90;;;;;;5528840;26;20045;-88
2024/04/18 02:17:14;;;;;;;10.43;1.75;;;2.50;99.90;;;;;;5529846;26;20017;-88
2024/04/18 02:19:41;;;;;;;3.10;1.20;;;3.20;99.90;;;;;;5487024;26;20006;-88
2024/04/18 02:22:08;;;;;;;2.38;1.05;;;3.20;99.90;;;;;;5486892;26;20005;-88
2024/04/18 02:24:38;;;;;;;5.53;1.10;;;2.40;99.90;;;;;;5549810;26;20005;-88
2024/04/18 02:27:05;;;;;;;5.47;1.10;;;3.10;99.90;;;;;;5492164;26;20034;-88
2024/04/18 02:29:32;;;;;;;4.38;1.17;;;3.40;99.90;;;;;;5527868;26;20020;-88
2024/04/18 02:31:59;;;;;;;2.80;1.20;;;3.00;99.90;;;;;;5496185;26;20022;-88
2024/04/18 02:34:26;;;;;;;4.97;1.20;;;2.30;99.90;;;;;;5505055;26;20007;-88
2024/04/18 02:36:54;;;;;;;2.83;0.90;;;2.20;99.90;;;;;;5497642;26;20368;-88
2024/04/18 02:39:21;;;;;;;5.82;1.48;;;2.30;99.90;;;;;;5491203;26;20007;-88
2024/04/18 02:41:47;;;;;;;7.00;1.13;;;3.20;99.90;;;;;;5521256;26;20009;-88
2024/04/18 02:44:14;;;;;;;5.50;1.10;;;2.20;99.90;;;;;;5497058;26;20007;-88
2024/04/18 02:46:41;;;;;;;4.18;1.60;;;3.00;99.90;;;;;;5555529;26;20016;-88
2024/04/18 02:49:08;;;;;;;3.95;1.33;;;2.10;99.90;;;;;;5539195;26;20450;-87
2024/04/18 02:51:36;;;;;;;4.78;1.52;;;2.50;99.90;;;;;;5528269;26;20002;-88
2024/04/18 02:54:03;;;;;;;5.60;1.20;;;2.50;99.90;;;;;;5541184;26;20459;-88
2024/04/18 02:56:30;;;;;;;3.78;1.40;;;2.50;99.90;;;;;;5511557;26;20020;-88
2024/04/18 02:58:57;;;;;;;3.33;1.00;;;2.00;99.90;;;;;;5533090;26;20082;-87
2024/04/18 03:01:24;;;;;;;3.45;1.17;;;1.90;99.90;;;;;;5540476;26;20091;-88
2024/04/18 03:03:50;;;;;;;4.32;1.40;;;2.00;99.90;;;;;;5521609;26;20022;-87
2024/04/18 03:06:17;;;;;;;6.35;1.42;;;2.00;99.90;;;;;;5506380;26;20074;-88
2024/04/18 03:08:44;;;;;;;3.65;1.10;;;2.60;99.90;;;;;;5496473;26;20007;-88
2024/04/18 03:11:31;;;;;;;2.75;1.10;;;2.10;99.90;;;;;;5499809;26;20002;-88
2024/04/18 03:13:57;;;;;;;4.28;1.15;;;1.90;99.90;;;;;;5519659;26;20018;-88
2024/04/18 03:16:24;;;;;;;2.85;1.20;;;3.00;99.90;;;;;;5496429;26;20014;-88
2024/04/18 03:19:14;;;;;;;4.40;1.10;;;1.80;99.90;;;;;;5483937;26;20017;-88
2024/04/18 03:21:40;;;;;;;5.97;1.45;;;1.80;99.90;;;;;;5479844;26;20005;-88
2024/04/18 03:24:24;;;;;;;4.50;1.15;;;1.80;99.90;;;;;;5489833;26;20006;-88
2024/04/18 03:26:52;;;;;;;2.65;0.98;;;1.80;99.90;;;;;;5490078;26;20006;-88
2024/04/18 03:29:38;;;;;;;4.38;1.20;;;2.40;99.90;;;;;;5453306;26;20002;-88
2024/04/18 03:32:05;;;;;;;3.20;1.33;;;1.70;99.90;;;;;;5466848;26;20043;-88
2024/04/18 03:34:32;;;;;;;2.97;1.10;;;1.70;99.90;;;;;;5502780;26;20006;-88
2024/04/18 03:36:59;;;;;;;10.38;1.38;;;1.70;99.90;;;;;;5465503;26;20014;-88
2024/04/18 03:39:29;;;;;;;6.55;1.33;;;1.70;99.90;;;;;;5495141;26;20093;-88
2024/04/18 03:41:56;;;;;;;3.17;1.50;;;2.30;99.90;;;;;;5527274;25;20017;-88
2024/04/18 03:44:23;;;;;;;3.00;1.20;;;1.70;99.90;;;;;;5500245;26;20013;-88
2024/04/18 03:47:09;;;;;;;5.22;1.30;;;1.70;99.90;;;;;;5495287;26;20017;-88
2024/04/18 03:49:36;;;;;;;7.20;1.20;;;2.50;99.90;;;;;;5520256;26;20506;-88
2024/04/18 03:52:22;;;;;;;7.32;1.50;;;1.60;99.90;;;;;;5522766;26;20522;-88
2024/04/18 03:54:48;;;;;;;3.65;1.23;;;1.60;99.90;;;;;;5495648;26;20033;-88
2024/04/18 03:57:35;;;;;;;3.72;1.30;;;1.60;99.90;;;;;;5506555;26;20443;-88
2024/04/18 04:00:04;;;;;;;5.10;1.83;;;1.50;99.90;;;;;;5502384;26;19998;-88
2024/04/18 04:02:34;;;;;;;3.30;1.30;;;1.50;99.90;;;;;;5473272;26;20082;-88
2024/04/18 04:05:01;;;;;;;5.15;1.50;;;1.90;99.90;;;;;;5494984;26;20495;-88
2024/04/18 04:07:29;;;;;;;3.58;1.33;;;1.50;99.90;;;;;;5522380;26;20459;-87
2024/04/18 04:10:15;;;;;;;4.15;1.42;;;2.00;99.90;;;;;;5502731;26;20527;-88
2024/04/18 04:12:42;;;;;;;3.55;1.27;;;1.50;99.90;;;;;;5515854;26;20014;-88
2024/04/18 04:15:09;;;;;;;3.20;1.20;;;1.90;99.90;;;;;;5498459;26;20082;-88
2024/04/18 04:17:55;;;;;;;2.47;1.08;;;1.50;99.90;;;;;;5449023;26;20095;-90
2024/04/18 04:20:24;;;;;;;4.22;1.15;;;2.30;99.90;;;;;;5512054;26;20474;-89
2024/04/18 04:22:51;;;;;;;3.47;1.17;;;1.50;99.90;;;;;;5487369;26;20014;-88
2024/04/18 04:25:18;;;;;;;4.53;1.52;;;1.70;99.90;;;;;;5495136;26;20081;-88
2024/04/18 04:27:48;;;;;;;4.50;1.48;;;2.10;99.90;;;;;;5494285;26;20038;-88
2024/04/18 04:30:15;;;;;;;3.92;1.38;;;1.50;99.90;;;;;;5494577;26;20006;-88
2024/04/18 04:32:41;;;;;;;3.90;1.45;;;1.50;99.90;;;;;;5526708;26;20042;-88
2024/04/18 04:35:10;;;;;;;3.70;1.70;;;2.50;99.90;;;;;;5526959;26;20014;-88
2024/04/18 04:37:36;;;;;;;4.07;1.30;;;1.50;99.90;;;;;;5537534;26;20014;-89
2024/04/18 04:40:04;;;;;;;7.03;1.45;;;1.90;99.90;;;;;;5545312;26;20416;-88
2024/04/18 04:42:32;;;;;;;3.45;1.35;;;1.50;99.90;;;;;;5528295;26;20078;-88
2024/04/18 04:44:59;;;;;;;4.13;1.30;;;2.10;99.90;;;;;;5493317;26;20007;-88
2024/04/18 04:47:25;;;;;;;2.95;1.38;;;2.60;99.90;;;;;;5516498;26;20010;-88
2024/04/18 04:49:52;;;;;;;3.70;1.27;;;2.30;99.90;;;;;;5526672;26;20018;-88
2024/04/18 04:52:20;;;;;;;4.07;1.45;;;2.10;99.90;;;;;;5494486;26;20038;-88
2024/04/18 04:54:47;;;;;;;5.03;1.60;;;2.50;99.90;;;;;;5524678;26;20971;-88
2024/04/18 04:57:13;;;;;;;3.58;1.27;;;2.60;99.90;;;;;;5526630;26;20021;-88
2024/04/18 04:59:40;;;;;;;4.85;1.42;;;2.40;99.90;;;;;;5497939;26;20021;-88
2024/04/18 05:02:07;;;;;;;5.97;1.40;;;1.50;99.90;;;;;;5517482;26;20009;-88
2024/04/18 05:04:34;;;;;;;4.40;1.40;;;2.70;99.90;;;;;;5533348;26;20064;-88
2024/04/18 05:07:01;;;;;;;5.57;1.70;;;2.90;99.90;;;;;;5500487;26;20447;-88
2024/04/18 05:09:28;;;;;;;6.25;1.70;;;2.60;99.90;;;;;;5518971;26;20011;-88
2024/04/18 05:11:55;;;;;;;4.00;1.38;;;1.70;99.90;;;;;;5510044;26;20447;-88
2024/04/18 05:14:22;;;;;;;5.20;1.90;;;1.70;99.90;;;;;;5525947;26;20042;-88
2024/04/18 05:16:49;;;;;;;3.97;1.80;;;1.80;99.90;;;;;;5479870;26;20086;-88
2024/04/18 05:19:16;;;;;;;5.57;1.88;;;1.90;99.90;;;;;;5503568;26;20016;-88
2024/04/18 05:21:43;;;;;;;6.57;1.85;;;1.90;99.90;;;;;;5503992;26;20438;-88
2024/04/18 05:24:10;;;;;;;3.58;1.80;;;2.40;99.90;;;;;;5504892;26;20096;-88
2024/04/18 05:26:37;;;;;;;5.35;2.30;;;3.00;99.90;;;;;;5498145;26;20006;-88
2024/04/18 05:31:50;;;;;;;4.55;2.00;;;2.20;99.90;;;;;;5545134;26;20051;-88
2024/04/18 05:34:16;;;;;;;5.97;2.25;;;2.40;99.90;;;;;;5507933;26;20091;-88
2024/04/18 05:36:46;;;;;;;5.90;1.90;;;2.40;99.90;;;;;;5544371;26;20347;-88
2024/04/18 05:39:13;;;;;;;5.18;1.83;;;2.40;99.90;;;;;;5503748;26;20006;-88
2024/04/18 05:41:40;;;;;;;6.93;2.05;;;3.00;99.90;;;;;;5498343;26;20017;-88
2024/04/18 05:44:06;;;;;;;6.82;1.73;;;2.60;99.90;;;;;;5540824;26;20014;-88
2024/04/18 05:46:33;;;;;;;7.05;1.83;;;3.20;99.90;;;;;;5520400;26;20007;-89
2024/04/18 05:49:00;;;;;;;5.50;1.90;;;3.70;99.90;;;;;;5498267;26;20037;-89
2024/04/18 05:51:27;;;;;;;6.25;1.83;;;2.90;99.90;;;;;;5493577;25;20454;-89
2024/04/18 05:53:54;;;;;;;4.47;1.80;;;3.00;99.90;;;;;;5497861;26;20467;-85
2024/04/18 05:56:21;;;;;;;6.22;1.80;;;3.20;99.90;;;;;;5502325;26;20016;-85
2024/04/18 05:58:48;;;;;;;5.57;1.70;;;3.20;99.90;;;;;;5506619;26;20443;-89
2024/04/18 06:01:14;;;;;;;5.38;1.50;;;3.40;99.90;;;;;;5510556;26;20005;-91
2024/04/18 06:03:41;;;;;;;8.60;2.13;;;3.50;99.90;;;;;;5502381;26;20006;-91
2024/04/18 06:06:08;;;;;;;6.10;1.77;;;3.70;99.90;;;;;;5553238;25;20094;-91
2024/04/18 06:08:35;;;;;;;10.15;2.10;;;3.80;99.90;;;;;;5498583;26;20347;-92
2024/04/18 06:11:01;;;;;;;4.72;1.45;;;4.00;99.90;;;;;;5516741;26;20006;-92
2024/04/18 06:13:30;;;;;;;7.18;1.80;;;4.20;99.90;;;;;;5520480;26;20347;-91
2024/04/18 06:15:57;;;;;;;5.50;1.67;;;4.50;99.90;;;;;;5489406;26;20005;-91
2024/04/18 06:18:24;;;;;;;4.88;1.65;;;4.30;99.90;;;;;;5493654;26;20026;-92
2024/04/18 06:20:51;;;;;;;6.10;1.42;;;4.40;99.90;;;;;;5505130;26;20355;-92
2024/04/18 06:23:17;;;;;;;5.25;1.80;;;4.50;99.90;;;;;;5511106;26;20011;-92
2024/04/18 06:25:44;;;;;;;5.35;1.80;;;4.60;99.90;;;;;;5501130;26;20030;-92
2024/04/18 06:28:12;;;;;;;9.25;1.90;;;5.00;99.90;;;;;;5522664;26;20199;-91
2024/04/18 06:30:40;;;;;;;7.47;2.25;;;5.80;99.90;;;;;;5494840;26;20056;-91
2024/04/18 06:33:07;;;;;;;4.32;1.50;;;5.60;99.90;;;;;;5494351;26;20010;-92
2024/04/18 06:35:34;;;;;;;5.07;1.63;;;4.90;99.90;;;;;;5498225;26;20051;-91
2024/04/18 06:38:01;;;;;;;6.15;1.58;;;5.90;99.90;;;;;;5509537;26;20006;-88
2024/04/18 06:40:28;;;;;;;8.23;1.50;;;6.10;99.90;;;;;;5497363;26;20640;-91
2024/04/18 06:42:55;;;;;;;7.40;1.58;;;5.50;99.90;;;;;;5497762;26;20017;-91
2024/04/18 06:45:23;;;;;;;4.10;1.75;;;5.60;99.90;;;;;;5535266;26;20020;-91
2024/04/18 06:47:50;;;;;;;8.23;1.70;;;5.40;99.90;;;;;;5509409;26;20045;-90
2024/04/18 06:50:18;;;;;;;7.72;1.60;;;5.50;99.90;;;;;;5544078;26;20006;-91
2024/04/18 06:52:45;;;;;;;7.82;1.85;;;6.10;99.90;;;;;;5497539;26;20014;-91
2024/04/18 06:55:12;;;;;;;4.60;1.60;;;6.20;99.90;;;;;;5548183;26;20030;-90
2024/04/18 06:57:39;;;;;;;6.95;1.90;;;6.00;99.90;;;;;;5507098;26;20005;-91
2024/04/18 07:00:07;;;;;;;9.32;1.50;;;6.20;99.90;;;;;;5516963;26;20006;-91
2024/04/18 07:02:34;;;;;;;4.82;1.30;;;6.30;99.90;;;;;;5529123;26;20475;-91
2024/04/18 07:05:01;;;;;;;4.65;1.70;;;6.80;99.90;;;;;;5514639;26;20081;-90
2024/04/18 07:07:27;;;;;;;5.55;1.40;;;6.50;99.90;;;;;;5497601;26;20006;-90
2024/04/18 07:09:54;;;;;;;6.13;1.52;;;7.30;99.90;;;;;;5511911;26;20021;-89
2024/04/18 07:12:21;;;;;;;8.60;1.60;;;7.10;99.90;;;;;;5517300;26;20010;-90
2024/04/18 07:14:48;;;;;;;6.32;1.50;;;6.90;99.90;;;;;;5483415;26;20370;-91
2024/04/18 07:17:14;;;;;;;6.65;1.55;;;7.00;99.90;;;;;;5528145;26;20470;-91
2024/04/18 07:19:42;;;;;;;4.78;1.55;;;7.50;99.90;;;;;;5528817;26;20021;-90
2024/04/18 07:22:09;;;;;;;4.10;1.50;;;6.90;99.90;;;;;;5491770;26;20019;-91
2024/04/18 07:24:35;;;;;;;5.75;1.40;;;6.40;99.90;;;;;;5504216;26;20006;-90
2024/04/18 07:27:02;;;;;;;5.05;1.42;;;6.50;99.90;;;;;;5528914;26;20021;-90
2024/04/18 07:29:29;;;;;;;5.28;1.30;;;6.60;99.90;;;;;;5486845;26;20083;-91
2024/04/18 07:31:56;;;;;;;6.13;1.52;;;7.60;99.90;;;;;;5506658;26;20009;-91
2024/04/18 07:34:22;;;;;;;6.53;1.45;;;7.30;99.90;;;;;;5497433;26;20006;-90
2024/04/18 07:36:49;;;;;;;4.85;1.65;;;6.90;99.90;;;;;;5507323;26;20018;-90
2024/04/18 07:39:16;;;;;;;5.65;0.90;;;7.70;99.90;;;;;;5509977;26;20092;-90
2024/04/18 07:41:46;;;;;;;4.75;1.30;;;7.20;99.90;;;;;;5507906;26;20065;-90
2024/04/18 07:44:13;;;;;;;3.40;1.00;;;8.40;99.90;;;;;;5500442;26;20014;-90
2024/04/18 07:46:40;;;;;;;6.15;1.05;;;7.60;99.90;;;;;;5528199;26;20458;-91
2024/04/18 07:49:07;;;;;;;4.68;1.00;;;7.80;99.90;;;;;;5529138;26;20016;-90
2024/04/18 07:51:35;;;;;;;3.47;1.15;;;8.60;99.90;;;;;;5517806;26;20005;-90
2024/04/18 07:54:02;;;;;;;2.88;1.10;;;8.60;99.90;;;;;;5525167;26;20013;-90
2024/04/18 07:56:32;;;;;;;1.52;0.80;;;8.40;99.90;;;;;;5541520;26;20013;-90
2024/04/18 07:58:59;;;;;;;4.97;1.20;;;8.50;99.90;;;;;;5485249;26;20020;-91
2024/04/18 08:01:26;;;;;;;4.72;1.00;;;8.90;99.90;;;;;;5544562;25;20914;-90
2024/04/18 08:03:56;;;;;;;2.80;1.13;;;9.10;99.90;;;;;;5504001;26;20006;-90
2024/04/18 08:06:22;;;;;;;5.13;1.35;;;9.20;99.90;;;;;;5526541;26;20022;-90
2024/04/18 08:08:49;;;;;;;2.90;0.82;;;9.40;99.90;;;;;;5472402;26;20016;-91
2024/04/18 08:11:16;;;;;;;4.15;1.13;;;9.70;99.90;;;;;;5466922;26;20017;-90
2024/04/18 08:13:43;;;;;;;6.38;1.10;;;9.80;99.90;;;;;;5507471;26;20010;-90
2024/04/18 08:16:09;;;;;;;5.55;0.93;;;9.90;99.90;;;;;;5483983;26;20465;-90
2024/04/18 08:18:36;;;;;;;4.53;1.10;;;9.90;99.90;;;;;;5546774;26;20143;-90
2024/04/18 08:21:03;;;;;;;7.97;1.23;;;9.80;99.90;;;;;;5511766;26;20055;-90
2024/04/18 08:23:30;;;;;;;3.42;1.23;;;9.70;99.90;;;;;;5512695;26;20021;-90
2024/04/18 08:25:57;;;;;;;5.50;0.88;;;9.70;99.90;;;;;;5522097;26;20006;-90
2024/04/18 08:28:24;;;;;;;2.72;1.05;;;9.60;99.90;;;;;;5514985;26;20080;-90
2024/04/18 08:30:51;;;;;;;4.97;1.15;;;9.50;99.90;;;;;;5557922;26;20537;-89
2024/04/18 08:33:17;;;;;;;2.80;0.90;;;9.40;99.90;;;;;;5528626;26;20017;-90
2024/04/18 08:35:45;;;;;;;5.03;1.02;;;9.40;99.90;;;;;;5536003;26;20006;-90
2024/04/18 08:38:12;;;;;;;4.07;0.95;;;9.30;99.90;;;;;;5564133;26;20020;-90
2024/04/18 08:40:46;;;;;;;3.38;0.82;;;9.30;99.90;;;;;;5499256;26;20061;-90
2024/04/18 08:43:13;;;;;;;6.18;1.10;;;9.40;99.90;;;;;;5499305;26;20014;-90
2024/04/18 08:45:41;;;;;;;2.78;0.70;;;9.30;99.90;;;;;;5512174;26;20085;-90
2024/04/18 08:48:10;;;;;;;8.00;1.00;;;9.40;99.90;;;;;;5544132;26;20006;-90
2024/04/18 08:50:40;;;;;;;3.47;0.90;;;9.70;99.90;;;;;;5525147;26;20013;-90
2024/04/18 08:53:09;;;;;;;4.30;1.17;;;10.40;99.90;;;;;;5513954;26;20021;-90
2024/04/18 08:55:38;;;;;;;5.32;0.90;;;10.20;99.90;;;;;;5528015;26;20019;-90
2024/04/18 08:58:11;;;;;;;2.72;0.82;;;10.30;99.90;;;;;;5551239;26;20001;-90
2024/04/18 09:00:45;;;;;;;5.72;1.20;;;10.30;99.90;;;;;;5526620;26;20017;-90
2024/04/18 09:03:12;;;;;;;2.65;0.90;;;10.30;99.90;;;;;;5517677;26;20442;-89
2024/04/18 09:05:41;;;;;;;3.30;0.88;;;10.60;99.90;;;;;;5504410;26;20008;-90
2024/04/18 09:08:09;;;;;;;4.10;0.90;;;10.60;99.90;;;;;;5531154;26;20022;-90
2024/04/18 09:10:36;;;;;;;2.45;0.77;;;10.60;99.90;;;;;;5522077;26;20007;-90
2024/04/18 09:13:03;;;;;;;2.75;0.82;;;10.60;99.90;;;;;;5497966;26;20018;-90
2024/04/18 09:15:30;;;;;;;1.92;0.60;;;10.70;99.90;;;;;;5555431;26;20075;-90
2024/04/18 09:18:01;;;;;;;3.35;0.88;;;11.30;99.90;;;;;;5492244;26;20036;-90
2024/04/18 09:20:30;;;;;;;2.92;0.90;;;11.00;99.90;;;;;;5509594;26;20046;-90
2024/04/18 09:22:57;;;;;;;2.35;0.90;;;11.20;99.90;;;;;;5498815;26;20017;-89
2024/04/18 09:25:24;;;;;;;2.78;0.90;;;10.70;99.90;;;;;;5482493;26;20443;-91
2024/04/18 09:27:51;;;;;;;5.70;1.10;;;10.60;99.90;;;;;;5492038;26;20022;-88
2024/04/18 09:30:18;;;;;;;4.45;1.02;;;10.50;99.90;;;;;;5516340;26;20006;-88
2024/04/18 09:32:44;;;;;;;3.05;0.90;;;10.60;99.90;;;;;;5521082;26;20050;-88
2024/04/18 09:35:11;;;;;;;4.13;0.95;;;10.60;99.90;;;;;;5492656;26;20022;-88
2024/04/18 09:37:39;;;;;;;3.78;0.77;;;10.60;99.90;;;;;;5554403;26;20034;-87
2024/04/18 09:40:11;;;;;;;4.07;1.08;;;10.60;99.90;;;;;;5468762;26;20404;-86
2024/04/18 09:42:59;;;;;;;5.30;0.95;;;10.60;99.90;;;;;;5498942;26;20455;-87
2024/04/18 09:45:39;;;;;;;3.30;0.85;;;10.80;99.90;;;;;;5536723;26;20032;-86
2024/04/18 09:48:06;;;;;;;3.45;0.88;;;10.80;99.90;;;;;;5506796;26;20030;-88
2024/04/18 09:50:33;;;;;;;2.97;0.90;;;10.70;99.90;;;;;;5509224;26;20021;-88
2024/04/18 09:53:00;;;;;;;3.97;0.70;;;10.50;99.90;;;;;;5543214;26;20458;-88
2024/04/18 09:55:28;;;;;;;3.40;0.95;;;10.30;99.90;;;;;;5477925;26;20021;-88
2024/04/18 09:57:55;;;;;;;3.05;0.98;;;10.20;99.90;;;;;;5529738;26;20007;-88
2024/04/18 10:00:24;;;;;;;2.03;0.80;;;10.40;99.90;;;;;;5498702;26;20018;-86
2024/04/18 10:02:53;;;;;;;2.58;0.80;;;10.20;99.90;;;;;;5490179;26;20039;-88
2024/04/18 10:05:21;;;;;;;3.40;0.75;;;10.70;99.90;;;;;;5540659;25;20010;-88
2024/04/18 10:07:48;;;;;;;5.07;0.80;;;10.80;99.90;;;;;;5498907;26;20740;-87
2024/04/18 10:10:17;;;;;;;4.93;0.80;;;10.90;99.90;;;;;;5491131;26;20006;-87
2024/04/18 10:12:44;;;;;;;3.80;1.25;;;10.80;99.90;;;;;;5511460;26;20055;-89
2024/04/18 10:15:17;;;;;;;3.42;0.98;;;11.00;99.90;;;;;;5497066;26;20074;-88
2024/04/18 10:17:44;;;;;;;3.60;1.08;;;11.30;99.90;;;;;;5522485;26;20086;-89
2024/04/18 10:20:13;;;;;;;15.00;1.40;;;11.50;99.90;;;;;;5505399;26;20467;-88
2024/04/18 10:22:40;;;;;;;4.28;0.90;;;12.00;99.90;;;;;;5508068;26;20009;-89
2024/04/18 10:25:19;;;;;;;2.88;0.70;;;11.50;99.90;;;;;;5497945;26;20021;-87
2024/04/18 10:27:46;;;;;;;3.03;0.90;;;11.20;99.90;;;;;;5477536;26;20021;-88
2024/04/18 10:30:16;;;;;;;3.28;0.82;;;11.10;99.90;;;;;;5532246;26;20007;-88
2024/04/18 10:32:45;;;;;;;7.28;1.20;;;11.00;99.90;;;;;;5507322;26;20064;-87
2024/04/18 10:35:14;;;;;;;4.38;1.20;;;11.10;99.90;;;;;;5484843;26;20010;-87
2024/04/18 10:37:50;;;;;;;4.10;0.85;;;11.40;99.90;;;;;;5481723;26;20020;-88
2024/04/18 10:40:17;;;;;;;4.35;0.80;;;11.00;99.90;;;;;;5532930;26;20017;-90
2024/04/18 10:42:43;;;;;;;3.72;0.80;;;11.00;99.90;;;;;;5498907;26;22717;-89
2024/04/18 10:45:11;;;;;;;10.65;1.20;;;11.40;99.90;;;;;;5501187;26;20063;-90
2024/04/18 10:47:39;;;;;;;3.60;1.15;;;10.90;99.90;;;;;;5502554;26;20487;-90
2024/04/18 10:50:07;;;;;;;4.47;1.08;;;11.10;99.90;;;;;;5516021;26;20018;-92
2024/04/18 10:52:33;;;;;;;3.47;1.02;;;11.20;99.90;;;;;;5497690;26;20006;-91
2024/04/18 10:55:00;;;;;;;2.65;0.90;;;11.60;99.90;;;;;;5490590;26;20467;-91
2024/04/18 10:57:27;;;;;;;5.63;1.08;;;11.50;99.90;;;;;;5480855;26;20879;-91
2024/04/18 10:59:54;;;;;;;3.55;1.10;;;11.70;99.90;;;;;;5521774;25;20017;-91
2024/04/18 11:02:21;;;;;;;6.88;1.00;;;11.70;99.90;;;;;;5541221;26;21089;-90
2024/04/18 11:04:48;;;;;;;5.88;1.08;;;11.70;99.90;;;;;;5498082;26;20017;-90
2024/04/18 11:07:18;;;;;;;2.67;0.80;;;12.00;99.90;;;;;;5462748;26;20459;-91
2024/04/18 11:09:45;;;;;;;4.15;1.25;;;11.70;99.90;;;;;;5498654;26;20002;-91
2024/04/18 11:12:14;;;;;;;5.13;1.13;;;12.10;99.90;;;;;;5499287;26;20006;-90
2024/04/18 11:14:41;;;;;;;6.45;1.10;;;12.20;99.90;;;;;;5522155;26;20038;-90
2024/04/18 11:17:07;;;;;;;7.82;1.23;;;12.00;99.90;;;;;;5497374;26;20038;-91
2024/04/18 11:19:34;;;;;;;7.05;1.20;;;11.70;99.90;;;;;;5496964;26;20021;-91
2024/04/18 11:22:01;;;;;;;5.03;1.10;;;11.50;99.90;;;;;;5531006;26;20006;-90
2024/04/18 11:24:29;;;;;;;3.33;0.95;;;11.10;99.90;;;;;;5491925;26;20017;-92
2024/04/18 11:26:55;;;;;;;4.13;1.10;;;11.00;99.90;;;;;;5516529;26;20006;-91
2024/04/18 11:29:27;;;;;;;1.83;0.60;;;11.10;99.90;;;;;;5497149;26;20007;-91
2024/04/18 11:32:03;;;;;;;3.67;0.88;;;10.80;99.90;;;;;;5491067;26;20046;-91
2024/04/18 11:34:30;;;;;;;2.95;1.00;;;11.30;99.90;;;;;;5511087;26;20010;-91
2024/04/18 11:36:56;;;;;;;3.90;1.02;;;10.90;99.90;;;;;;5510283;26;20022;-92
2024/04/18 11:39:27;;;;;;;4.97;1.10;;;11.10;99.90;;;;;;5496733;26;20014;-90
2024/04/18 11:41:54;;;;;;;5.00;1.48;;;11.10;99.90;;;;;;5493830;26;20006;-91
2024/04/18 11:44:20;;;;;;;7.82;1.10;;;11.10;99.90;;;;;;5496175;26;20006;-92
2024/04/18 11:46:50;;;;;;;2.63;1.20;;;11.30;99.90;;;;;;5497087;26;20006;-92
2024/04/18 11:49:17;;;;;;;3.28;1.02;;;11.40;99.90;;;;;;5500788;26;20034;-91
2024/04/18 11:51:43;;;;;;;4.35;1.17;;;11.70;99.90;;;;;;5497453;26;20012;-90
2024/04/18 11:54:10;;;;;;;4.35;0.90;;;11.90;99.90;;;;;;5514461;25;20013;-90
2024/04/18 11:56:37;;;;;;;8.20;1.20;;;11.60;99.90;;;;;;5555961;26;20025;-91
2024/04/18 11:59:04;;;;;;;3.53;0.93;;;11.70;99.90;;;;;;5496314;26;20002;-91
2024/04/18 12:01:30;;;;;;;5.20;1.13;;;11.60;99.90;;;;;;5495819;26;20010;-88
2024/04/18 12:03:58;;;;;;;6.00;1.02;;;11.60;99.90;;;;;;5529437;26;20002;-88
2024/04/18 12:06:25;;;;;;;5.43;1.10;;;11.60;99.90;;;;;;5496720;26;20024;-88
2024/04/18 12:08:52;;;;;;;3.92;0.90;;;11.50;99.90;;;;;;5532261;26;20343;-89
2024/04/18 12:11:18;;;;;;;3.85;0.80;;;11.60;99.90;;;;;;5507308;26;20006;-88
2024/04/18 12:13:46;;;;;;;5.60;1.10;;;11.50;99.90;;;;;;5502506;26;20516;-88
2024/04/18 12:16:13;;;;;;;4.38;0.93;;;11.30;99.90;;;;;;5485374;26;20035;-89
2024/04/18 12:18:39;;;;;;;11.15;1.30;;;11.40;99.90;;;;;;5510676;26;20005;-89
2024/04/18 12:21:06;;;;;;;5.88;1.20;;;11.20;99.90;;;;;;5505308;26;20020;-86
2024/04/18 12:23:33;;;;;;;5.45;1.02;;;11.30;99.90;;;;;;5525686;26;20006;-87
2024/04/18 12:26:00;;;;;;;11.63;1.27;;;11.30;99.90;;;;;;5520881;26;20006;-87
2024/04/18 12:28:26;;;;;;;5.40;1.08;;;11.40;99.90;;;;;;5473037;26;20410;-85
2024/04/18 12:30:53;;;;;;;4.45;1.13;;;11.40;99.90;;;;;;5476505;26;20014;-85
2024/04/18 12:33:20;;;;;;;3.53;1.08;;;11.60;99.90;;;;;;5465320;26;20017;-87
2024/04/18 12:35:47;;;;;;;4.80;1.10;;;11.60;99.90;;;;;;5546523;26;20005;-88
2024/04/18 12:38:14;;;;;;;7.03;1.15;;;11.60;99.90;;;;;;5527354;26;20006;-87
2024/04/18 12:40:40;;;;;;;5.10;1.13;;;11.70;99.90;;;;;;5497297;26;20021;-87
2024/04/18 12:43:07;;;;;;;5.95;1.13;;;11.80;99.90;;;;;;5495619;26;20025;-88
2024/04/18 12:45:34;;;;;;;7.55;1.20;;;11.80;99.90;;;;;;5479098;26;20018;-86
2024/04/18 12:48:03;;;;;;;10.10;1.38;;;11.70;99.90;;;;;;5506401;26;20372;-87
2024/04/18 12:50:29;;;;;;;3.75;0.95;;;11.60;99.90;;;;;;5511579;26;20018;-87
2024/04/18 12:52:56;;;;;;;10.57;1.20;;;11.40;99.90;;;;;;5462470;26;20459;-87
2024/04/18 12:55:23;;;;;;;7.38;1.10;;;11.30;99.90;;;;;;5510587;26;20006;-87
2024/04/18 12:57:50;;;;;;;5.53;1.40;;;11.20;99.90;;;;;;5527511;26;20412;-87
2024/04/18 13:00:17;;;;;;;6.15;1.20;;;11.40;99.90;;;;;;5503906;26;20355;-86